createdAt,value
2019-03-19T00:00:41.672Z,14.98
2019-03-19T00:03:13.017Z,10.48
2019-03-19T00:05:41.973Z,12.35
2019-03-19T00:08:10.965Z,16.07
2019-03-19T00:10:41.144Z,13.80
2019-03-19T00:13:13.423Z,11.22
2019-03-19T00:15:43.919Z,12.35
2019-03-19T00:18:14.454Z,10.03
2019-03-19T00:20:45.787Z,9.45
2019-03-19T00:23:17.591Z,8.78
2019-03-19T00:25:46.584Z,12.35
2019-03-19T00:28:15.618Z,12.63
2019-03-19T00:30:47.109Z,11.28
2019-03-19T00:33:16.048Z,9.50
2019-03-19T00:35:47.821Z,9.10
2019-03-19T00:38:17.945Z,11.53
2019-03-19T00:40:49.697Z,8.83
2019-03-19T00:43:20.266Z,7.75
2019-03-19T00:45:49.307Z,8.50
2019-03-19T00:48:18.340Z,10.32
2019-03-19T00:50:51.954Z,10.03
2019-03-19T00:53:18.417Z,9.88
2019-03-19T00:55:47.374Z,8.28
2019-03-19T00:58:16.330Z,12.13
2019-03-19T01:00:45.332Z,11.18
2019-03-19T01:03:14.430Z,12.85
2019-03-19T01:05:43.381Z,8.38
2019-03-19T01:08:17.528Z,9.70
2019-03-19T01:10:46.487Z,12.05
2019-03-19T01:13:17.530Z,14.20
2019-03-19T01:15:46.490Z,13.88
2019-03-19T01:18:15.537Z,10.90
2019-03-19T01:20:47.581Z,16.67
2019-03-19T01:23:17.392Z,10.48
2019-03-19T01:25:55.083Z,8.95
2019-03-19T01:28:19.147Z,12.37
2019-03-19T01:30:52.521Z,13.05
2019-03-19T01:33:18.774Z,12.33
2019-03-19T01:35:48.282Z,12.18
2019-03-19T01:38:17.273Z,12.88
2019-03-19T01:40:46.296Z,8.70
2019-03-19T01:43:15.339Z,13.78
2019-03-19T01:45:44.495Z,14.87
2019-03-19T01:48:13.426Z,15.93
2019-03-19T01:50:42.519Z,13.32
2019-03-19T01:53:11.450Z,13.93
2019-03-19T01:55:44.474Z,13.30
2019-03-19T01:58:15.666Z,14.70
2019-03-19T02:00:44.630Z,12.07
2019-03-19T02:03:13.600Z,14.53
2019-03-19T02:05:42.998Z,15.98
2019-03-19T02:08:14.047Z,12.20
2019-03-19T02:10:43.074Z,16.35
2019-03-19T02:13:12.105Z,11.60
2019-03-19T02:15:41.134Z,19.85
2019-03-19T02:18:10.170Z,14.78
2019-03-19T02:20:39.314Z,14.65
2019-03-19T02:23:09.438Z,13.05
2019-03-19T02:25:38.443Z,20.75
2019-03-19T02:28:13.269Z,13.83
2019-03-19T02:30:42.252Z,12.58
2019-03-19T02:33:13.425Z,12.55
2019-03-19T02:35:42.588Z,16.75
2019-03-19T02:38:11.813Z,13.10
2019-03-19T02:40:40.886Z,18.50
2019-03-19T02:43:09.877Z,13.22
2019-03-19T02:45:38.869Z,17.50
2019-03-19T02:48:07.841Z,15.93
2019-03-19T02:50:36.853Z,15.88
2019-03-19T02:53:05.879Z,22.82
2019-03-19T02:55:34.289Z,17.40
2019-03-19T02:58:04.725Z,20.75
2019-03-19T03:00:39.181Z,16.52
2019-03-19T03:03:08.209Z,21.93
2019-03-19T03:08:08.081Z,16.48
2019-03-19T03:10:37.346Z,18.37
2019-03-19T03:13:06.316Z,19.48
2019-03-19T03:15:35.323Z,16.77
2019-03-19T03:18:06.150Z,20.08
2019-03-19T03:20:35.127Z,15.70
2019-03-19T03:23:04.396Z,10.25
2019-03-19T03:25:33.368Z,14.38
2019-03-19T03:34:19.090Z,14.13
2019-03-19T03:36:53.382Z,20.60
2019-03-19T03:39:22.354Z,22.25
2019-03-19T03:41:53.147Z,23.18
2019-03-19T03:44:24.949Z,20.43
2019-03-19T03:46:53.914Z,18.37
2019-03-19T03:49:25.980Z,19.73
2019-03-19T03:51:54.940Z,15.98
2019-03-19T03:54:23.922Z,18.15
2019-03-19T03:57:01.771Z,21.00
2019-03-19T03:59:23.645Z,27.45
2019-03-19T04:01:54.886Z,19.87
2019-03-19T04:04:34.380Z,27.52
2019-03-19T04:07:00.518Z,22.82
2019-03-19T04:09:29.546Z,27.55
2019-03-19T04:11:58.523Z,29.52
2019-03-19T04:14:27.492Z,28.47
2019-03-19T04:16:56.528Z,35.08
2019-03-19T04:19:25.504Z,29.48
2019-03-19T04:21:57.197Z,31.27
2019-03-19T04:24:33.212Z,21.57
2019-03-19T04:27:14.871Z,20.95
2019-03-19T04:29:36.169Z,20.85
2019-03-19T04:32:05.126Z,22.95
2019-03-19T04:34:35.285Z,21.97
2019-03-19T04:37:10.433Z,21.15
2019-03-19T04:39:39.430Z,27.07
2019-03-19T04:42:08.392Z,23.30
2019-03-19T04:44:39.914Z,24.47
2019-03-19T04:47:08.887Z,30.23
2019-03-19T04:49:39.070Z,30.15
2019-03-19T04:52:08.046Z,23.40
2019-03-19T04:54:37.185Z,26.52
2019-03-19T04:57:06.199Z,24.60
2019-03-19T04:59:35.202Z,33.83
2019-03-19T05:02:04.516Z,25.70
2019-03-19T05:04:34.185Z,28.12
2019-03-19T05:07:04.801Z,30.55
2019-03-19T05:09:36.568Z,29.35
2019-03-19T05:12:07.828Z,25.12
2019-03-19T05:14:36.848Z,30.23
2019-03-19T05:17:06.133Z,30.02
2019-03-19T05:19:35.126Z,26.90
2019-03-19T05:22:04.093Z,29.15
2019-03-19T05:24:33.081Z,29.60
2019-03-19T05:27:02.049Z,26.65
2019-03-19T05:29:33.818Z,28.92
2019-03-19T05:32:02.775Z,31.75
2019-03-19T05:34:31.760Z,35.75
2019-03-19T05:37:00.721Z,38.63
2019-03-19T05:39:33.115Z,31.20
2019-03-19T05:42:02.291Z,29.85
2019-03-19T05:44:31.823Z,32.77
2019-03-19T05:47:00.797Z,32.42
2019-03-19T05:49:29.825Z,31.73
2019-03-19T05:52:01.678Z,37.03
2019-03-19T05:54:33.506Z,27.58
2019-03-19T05:57:02.510Z,31.93
2019-03-19T05:59:31.517Z,29.45
2019-03-19T06:02:01.070Z,30.88
2019-03-19T06:04:30.033Z,26.30
2019-03-19T06:06:59.226Z,28.12
2019-03-19T06:09:28.163Z,31.77
2019-03-19T06:11:58.583Z,37.63
2019-03-19T06:14:27.563Z,37.03
2019-03-19T06:16:56.529Z,32.63
2019-03-19T06:19:25.514Z,37.15
2019-03-19T06:21:56.851Z,35.60
2019-03-19T06:26:56.637Z,30.73
2019-03-19T06:29:27.250Z,30.50
2019-03-19T06:32:00.004Z,29.10
2019-03-19T06:34:30.127Z,30.48
2019-03-19T06:39:31.868Z,29.23
2019-03-19T06:42:03.907Z,27.77
2019-03-19T06:44:32.248Z,33.78
2019-03-19T06:47:03.003Z,28.38
2019-03-19T06:49:32.067Z,31.40
2019-03-19T06:52:01.106Z,27.07
2019-03-19T06:54:30.136Z,29.65
2019-03-19T06:57:01.219Z,32.75
2019-03-19T06:59:30.219Z,28.60
2019-03-19T07:02:01.382Z,25.02
2019-03-19T07:04:30.504Z,26.85
2019-03-19T07:07:05.449Z,28.92
2019-03-19T07:09:34.418Z,29.72
2019-03-19T07:12:03.637Z,35.43
2019-03-19T07:14:32.669Z,29.23
2019-03-19T07:17:05.120Z,28.83
2019-03-19T07:19:34.122Z,38.98
2019-03-19T07:22:07.332Z,30.27
2019-03-19T07:24:36.330Z,26.52
2019-03-19T07:27:05.303Z,35.17
2019-03-19T07:29:34.293Z,28.98
2019-03-19T07:32:03.322Z,29.40
2019-03-19T07:34:32.354Z,32.95
2019-03-19T07:37:02.935Z,24.90
2019-03-19T07:39:35.102Z,34.80
2019-03-19T07:42:04.072Z,26.42
2019-03-19T07:44:34.575Z,33.98
2019-03-19T07:47:05.167Z,28.62
2019-03-19T07:49:34.150Z,24.57
2019-03-19T07:52:07.122Z,28.83
2019-03-19T07:54:38.985Z,27.37
2019-03-19T07:57:08.002Z,28.38
2019-03-19T07:59:37.029Z,25.57
2019-03-19T08:02:08.358Z,26.48
2019-03-19T08:04:37.331Z,30.37
2019-03-19T08:07:06.321Z,26.35
2019-03-19T08:09:35.980Z,23.87
2019-03-19T08:12:06.792Z,28.90
2019-03-19T08:14:37.238Z,28.23
2019-03-19T08:17:06.269Z,27.75
2019-03-19T08:19:35.781Z,29.00
2019-03-19T08:22:08.395Z,35.68
2019-03-19T08:24:37.424Z,30.20
2019-03-19T08:27:06.431Z,29.55
2019-03-19T08:29:36.929Z,31.25
2019-03-19T08:32:06.257Z,32.00
2019-03-19T08:34:38.037Z,31.48
2019-03-19T08:37:07.085Z,27.95
2019-03-19T08:39:37.629Z,31.30
2019-03-19T08:42:06.671Z,28.87
2019-03-19T08:48:46.101Z,25.92
2019-03-19T08:51:15.077Z,32.78
2019-03-19T08:53:49.271Z,28.35
2019-03-19T08:56:20.074Z,28.15
2019-03-19T08:58:49.115Z,28.00
2019-03-19T09:01:18.117Z,32.37
2019-03-19T09:03:47.249Z,26.55
2019-03-19T09:06:16.233Z,27.77
2019-03-19T09:08:45.274Z,27.30
2019-03-19T09:11:17.094Z,30.20
2019-03-19T09:13:46.088Z,30.37
2019-03-19T09:16:20.062Z,25.00
2019-03-19T09:18:51.324Z,28.50
2019-03-19T09:21:20.320Z,30.25
2019-03-19T09:23:49.270Z,31.95
2019-03-19T09:26:20.534Z,28.25
2019-03-19T09:28:52.356Z,27.13
2019-03-19T09:31:23.402Z,31.25
2019-03-19T09:33:52.368Z,27.55
2019-03-19T09:36:23.390Z,33.88
2019-03-19T09:38:52.375Z,31.33
2019-03-19T09:41:24.514Z,27.27
2019-03-19T09:43:55.587Z,27.35
2019-03-19T09:46:24.560Z,30.32
2019-03-19T09:48:53.573Z,30.25
2019-03-19T09:51:22.609Z,29.02
2019-03-19T09:53:51.626Z,26.90
2019-03-19T09:56:20.650Z,27.20
2019-03-19T09:58:49.697Z,27.23
2019-03-19T10:01:20.783Z,26.25
2019-03-19T10:03:51.427Z,26.37
2019-03-19T10:06:20.563Z,28.50
2019-03-19T10:08:49.696Z,30.15
2019-03-19T10:11:18.631Z,31.33
2019-03-19T10:13:47.597Z,26.42
2019-03-19T10:16:16.569Z,26.37
2019-03-19T10:18:47.217Z,27.35
2019-03-19T10:21:17.249Z,28.02
2019-03-19T10:23:49.074Z,25.37
2019-03-19T10:26:18.165Z,27.50
2019-03-19T10:28:47.158Z,27.10
2019-03-19T10:31:16.153Z,24.57
2019-03-19T10:33:45.162Z,25.08
2019-03-19T10:36:17.379Z,23.92
2019-03-19T10:38:46.600Z,27.62
2019-03-19T10:41:15.557Z,25.37
2019-03-19T10:43:48.205Z,29.35
2019-03-19T10:46:17.167Z,24.25
2019-03-19T10:48:46.197Z,24.98
2019-03-19T10:51:15.149Z,21.40
2019-03-19T10:53:45.107Z,23.55
2019-03-19T10:58:43.795Z,25.55
2019-03-19T11:01:12.947Z,20.50
2019-03-19T11:03:41.866Z,23.37
2019-03-19T11:06:10.871Z,23.35
2019-03-19T11:08:39.895Z,27.77
2019-03-19T11:11:08.896Z,23.77
2019-03-19T11:13:37.838Z,23.60
2019-03-19T11:16:06.853Z,23.75
2019-03-19T11:18:37.077Z,26.50
2019-03-19T11:21:06.221Z,21.57
2019-03-19T11:23:35.177Z,22.17
2019-03-19T11:26:09.273Z,24.45
2019-03-19T11:28:38.275Z,20.97
2019-03-19T11:31:11.052Z,19.50
2019-03-19T11:33:41.595Z,20.15
2019-03-19T11:36:12.333Z,21.55
2019-03-19T11:38:41.391Z,22.13
2019-03-19T11:41:13.290Z,20.33
2019-03-19T11:43:42.306Z,23.95
2019-03-19T11:46:11.300Z,20.27
2019-03-19T11:48:43.267Z,22.15
2019-03-19T11:51:15.605Z,21.75
2019-03-19T11:53:47.606Z,19.40
2019-03-19T11:56:16.563Z,17.62
2019-03-19T11:58:48.017Z,15.30
2019-03-19T12:01:20.280Z,14.13
2019-03-19T12:03:50.888Z,19.52
2019-03-19T12:06:22.698Z,15.85
2019-03-19T12:08:51.654Z,16.42
2019-03-19T12:11:21.446Z,14.70
2019-03-19T12:13:50.574Z,13.62
2019-03-19T12:16:19.565Z,13.53
2019-03-19T12:18:49.946Z,13.50
2019-03-19T12:21:18.937Z,13.70
2019-03-19T12:23:49.431Z,16.40
2019-03-19T12:26:18.398Z,13.10
2019-03-19T12:28:47.388Z,14.30
2019-03-19T12:31:16.372Z,17.33
2019-03-19T12:33:45.302Z,17.32
2019-03-19T12:36:17.363Z,14.23
2019-03-19T12:38:46.384Z,13.00
2019-03-19T12:41:16.362Z,17.03
2019-03-19T12:43:45.542Z,18.67
2019-03-19T12:46:22.030Z,20.45
2019-03-19T12:48:50.990Z,16.32
2019-03-19T12:51:20.080Z,14.68
2019-03-19T12:53:52.176Z,18.57
2019-03-19T12:56:21.194Z,16.82
2019-03-19T12:58:50.324Z,14.85
2019-03-19T13:01:19.392Z,17.23
2019-03-19T13:03:48.631Z,15.40
2019-03-19T13:06:17.557Z,18.73
2019-03-19T13:08:46.550Z,17.98
2019-03-19T13:11:16.079Z,13.83
2019-03-19T13:13:45.183Z,12.07
2019-03-19T13:16:17.168Z,13.80
2019-03-19T13:18:49.980Z,9.38
2019-03-19T13:21:24.155Z,12.47
2019-03-19T13:23:53.204Z,12.68
2019-03-19T13:26:22.174Z,9.95
2019-03-19T13:28:52.209Z,12.90
2019-03-19T13:34:01.411Z,10.08
2019-03-19T13:36:30.369Z,14.65
2019-03-19T13:39:02.499Z,10.03
2019-03-19T13:41:35.201Z,10.63
2019-03-19T13:44:04.881Z,9.48
2019-03-19T13:46:34.030Z,10.85
2019-03-19T13:49:03.016Z,9.98
2019-03-19T13:51:31.981Z,13.93
2019-03-19T13:54:03.641Z,9.67
2019-03-19T13:56:32.757Z,11.10
2019-03-19T13:59:01.686Z,12.17
2019-03-19T14:01:34.309Z,11.20
2019-03-19T14:04:03.260Z,7.67
2019-03-19T14:06:32.238Z,12.78
2019-03-19T14:09:02.385Z,8.85
2019-03-19T14:11:32.482Z,8.53
2019-03-19T14:14:01.445Z,9.38
2019-03-19T14:16:31.085Z,9.78
2019-03-19T14:19:01.051Z,12.37
2019-03-19T14:21:33.112Z,6.95
2019-03-19T14:24:02.138Z,9.40
2019-03-19T14:26:31.651Z,8.05
2019-03-19T14:29:19.886Z,6.12
2019-03-19T14:31:44.704Z,8.78
2019-03-19T14:34:13.663Z,10.18
2019-03-19T14:36:48.808Z,8.30
2019-03-19T14:39:23.504Z,13.08
2019-03-19T14:41:52.456Z,10.88
2019-03-19T14:44:21.985Z,7.30
2019-03-19T14:46:51.380Z,9.33
2019-03-19T14:49:20.312Z,10.77
2019-03-19T14:51:49.340Z,9.93
2019-03-19T14:54:22.586Z,8.13
2019-03-19T14:56:53.148Z,9.83
2019-03-19T14:59:22.140Z,10.40
2019-03-19T15:01:51.147Z,8.63
2019-03-19T15:04:21.332Z,10.27
2019-03-19T15:06:53.544Z,9.23
2019-03-19T15:09:24.485Z,8.83
2019-03-19T15:11:53.426Z,7.55
2019-03-19T15:14:22.394Z,7.40
2019-03-19T15:16:51.356Z,7.28
2019-03-19T15:19:21.422Z,8.80
2019-03-19T15:21:51.087Z,9.08
2019-03-19T15:24:22.750Z,7.25
2019-03-19T15:26:55.019Z,12.18
2019-03-19T15:29:28.537Z,9.80
2019-03-19T15:31:58.155Z,11.85
2019-03-19T15:34:27.110Z,9.45
2019-03-19T15:36:56.070Z,10.58
2019-03-19T15:39:25.472Z,13.67
2019-03-19T15:41:54.445Z,5.83
2019-03-19T15:44:25.225Z,8.15
2019-03-19T15:46:54.220Z,7.72
2019-03-19T15:49:24.839Z,11.55
2019-03-19T15:51:58.354Z,8.78
2019-03-19T15:54:27.311Z,11.18
2019-03-19T15:56:56.311Z,10.18
2019-03-19T15:59:26.817Z,10.82
2019-03-19T16:01:57.341Z,11.22
2019-03-19T16:04:28.701Z,8.40
2019-03-19T16:07:02.926Z,10.72
2019-03-19T16:09:32.365Z,9.15
2019-03-19T16:12:06.450Z,10.98
2019-03-19T16:14:37.127Z,11.33
2019-03-19T16:17:07.625Z,8.08
2019-03-19T16:19:38.216Z,6.70
2019-03-19T16:22:11.195Z,9.95
2019-03-19T16:24:40.149Z,8.70
2019-03-19T16:27:09.097Z,9.73
2019-03-19T16:29:38.723Z,9.60
2019-03-19T16:32:07.731Z,11.28
2019-03-19T16:34:36.712Z,8.98
2019-03-19T16:37:07.161Z,8.47
2019-03-19T16:39:39.272Z,6.53
2019-03-19T16:42:08.540Z,6.95
2019-03-19T16:44:39.957Z,9.63
2019-03-19T16:47:12.334Z,9.48
2019-03-19T16:49:46.959Z,10.38
2019-03-19T16:52:15.933Z,9.05
2019-03-19T16:54:46.525Z,8.83
2019-03-19T16:57:18.604Z,8.73
2019-03-19T16:59:49.086Z,8.88
2019-03-19T17:02:18.684Z,9.20
2019-03-19T17:04:47.680Z,11.10
2019-03-19T17:07:16.956Z,12.90
2019-03-19T17:09:46.278Z,13.58
2019-03-19T17:12:16.482Z,11.50
2019-03-19T17:14:49.788Z,10.90
2019-03-19T17:17:19.400Z,8.65
2019-03-19T17:19:49.910Z,10.35
2019-03-19T17:22:19.022Z,8.73
2019-03-19T17:24:53.774Z,8.30
2019-03-19T17:27:23.926Z,10.82
2019-03-19T17:29:52.984Z,13.40
2019-03-19T17:32:22.250Z,10.38
2019-03-19T17:34:51.224Z,14.15
2019-03-19T17:37:20.210Z,11.15
2019-03-19T17:40:01.514Z,9.05
2019-03-19T17:42:33.284Z,10.88
2019-03-19T17:45:05.702Z,11.50
2019-03-19T17:47:36.381Z,9.43
2019-03-19T17:50:06.895Z,11.63
2019-03-19T17:52:36.548Z,11.33
2019-03-19T17:55:07.169Z,9.08
2019-03-19T17:57:37.807Z,11.63
2019-03-19T18:00:10.645Z,10.40
2019-03-19T18:02:39.630Z,10.53
2019-03-19T18:05:09.213Z,12.70
2019-03-19T18:07:38.307Z,12.55
2019-03-19T18:10:08.775Z,13.50
2019-03-19T18:12:43.300Z,10.08
2019-03-19T18:15:14.797Z,10.23
2019-03-19T18:17:46.394Z,10.38
2019-03-19T18:20:18.384Z,13.03
2019-03-19T18:22:48.661Z,11.68
2019-03-19T18:25:19.663Z,11.97
2019-03-19T18:27:58.291Z,12.60
2019-03-19T18:30:29.563Z,11.70
2019-03-19T18:33:01.357Z,10.60
2019-03-19T18:35:30.301Z,15.15
2019-03-19T18:37:59.285Z,11.33
2019-03-19T18:40:28.388Z,13.65
2019-03-19T18:42:57.349Z,12.53
2019-03-19T18:45:26.361Z,13.45
2019-03-19T18:47:58.221Z,15.83
2019-03-19T18:50:29.695Z,18.50
2019-03-19T18:53:01.983Z,18.45
2019-03-19T18:55:33.973Z,17.10
2019-03-19T18:58:04.430Z,18.62
2019-03-19T19:00:33.401Z,15.80
2019-03-19T19:03:04.203Z,17.40
2019-03-19T19:05:33.189Z,16.48
2019-03-19T19:08:02.200Z,19.65
2019-03-19T19:10:31.244Z,18.05
2019-03-19T19:13:00.311Z,20.05
2019-03-19T19:15:29.318Z,19.37
2019-03-19T19:17:58.352Z,21.75
2019-03-19T19:20:27.377Z,17.85
2019-03-19T19:22:56.933Z,17.87
2019-03-19T19:25:26.471Z,20.88
2019-03-19T19:27:57.849Z,16.97
2019-03-19T19:30:29.974Z,23.02
2019-03-19T19:33:01.873Z,21.45
2019-03-19T19:35:29.649Z,27.45
2019-03-19T19:38:00.250Z,22.87
2019-03-19T19:40:29.205Z,20.85
2019-03-19T19:43:03.131Z,21.45
2019-03-19T19:45:32.287Z,20.20
2019-03-19T19:48:03.844Z,21.90
2019-03-19T19:50:32.809Z,19.57
2019-03-19T19:53:01.814Z,21.27
2019-03-19T19:55:32.251Z,24.52
2019-03-19T19:58:01.806Z,20.30
2019-03-19T20:00:33.231Z,21.48
2019-03-19T20:03:12.221Z,17.80
2019-03-19T20:05:38.715Z,23.32
2019-03-19T20:08:08.882Z,21.27
2019-03-19T20:13:07.619Z,19.60
2019-03-19T20:15:36.608Z,21.93
2019-03-19T20:18:05.626Z,25.45
2019-03-19T20:23:03.788Z,20.23
2019-03-19T20:25:32.796Z,22.17
2019-03-19T20:28:01.826Z,25.75
2019-03-19T20:30:30.888Z,23.45
2019-03-19T20:33:02.021Z,22.47
2019-03-19T20:35:34.651Z,25.05
2019-03-19T20:38:03.309Z,22.27
2019-03-19T20:40:32.894Z,25.23
2019-03-19T20:43:12.844Z,22.85
2019-03-19T20:45:37.845Z,25.65
2019-03-19T20:48:06.934Z,23.50
2019-03-19T20:50:37.076Z,23.42
2019-03-19T20:53:06.281Z,24.55
2019-03-19T20:55:35.250Z,23.40
2019-03-19T20:58:04.730Z,26.02
2019-03-19T21:00:33.698Z,25.00
2019-03-19T21:03:02.691Z,24.75
2019-03-19T21:05:34.693Z,27.98
2019-03-19T21:08:06.803Z,29.30
2019-03-19T21:10:35.844Z,26.42
2019-03-19T21:13:05.127Z,29.42
2019-03-19T21:15:34.145Z,27.90
2019-03-19T21:18:05.515Z,25.37
2019-03-19T21:20:34.531Z,28.20
2019-03-19T21:23:03.489Z,33.25
2019-03-19T21:25:35.658Z,28.57
2019-03-19T21:28:14.390Z,26.30
2019-03-19T21:30:41.334Z,27.50
2019-03-19T21:33:11.825Z,29.82
2019-03-19T21:35:43.293Z,27.60
2019-03-19T21:38:12.286Z,32.08
2019-03-19T21:40:41.340Z,29.72
2019-03-19T21:43:10.620Z,29.40
2019-03-19T21:45:39.634Z,29.63
2019-03-19T21:48:08.641Z,33.93
2019-03-19T21:50:42.058Z,30.20
2019-03-19T21:53:16.310Z,27.75
2019-03-19T21:55:45.366Z,29.18
2019-03-19T21:58:14.342Z,33.73
2019-03-19T22:00:43.300Z,33.92
2019-03-19T22:03:12.664Z,32.45
2019-03-19T22:05:41.698Z,34.63
2019-03-19T22:08:15.870Z,33.50
2019-03-19T22:10:44.834Z,32.67
2019-03-19T22:13:13.804Z,33.08
2019-03-19T22:15:43.809Z,35.95
2019-03-19T22:18:12.810Z,38.92
2019-03-19T22:20:41.855Z,34.53
2019-03-19T22:23:10.814Z,40.95
2019-03-19T22:25:39.774Z,35.03
2019-03-19T22:28:08.812Z,43.55
2019-03-19T22:30:37.798Z,37.73
2019-03-19T22:33:08.290Z,37.60
2019-03-19T22:35:38.860Z,35.92
2019-03-19T22:38:09.686Z,32.45
2019-03-19T22:40:38.665Z,34.88
2019-03-19T22:43:07.736Z,35.50
2019-03-19T22:45:37.290Z,34.00
2019-03-19T22:48:07.330Z,35.03
2019-03-19T22:50:36.463Z,40.80
2019-03-19T22:53:05.486Z,34.88
2019-03-19T22:55:35.744Z,36.98
2019-03-19T22:58:06.903Z,37.10
2019-03-19T23:00:37.503Z,35.33
2019-03-19T23:03:08.478Z,43.02
2019-03-19T23:05:40.424Z,40.70
2019-03-19T23:08:09.402Z,40.52
2019-03-19T23:10:45.023Z,42.33
2019-03-19T23:13:11.805Z,43.45
2019-03-19T23:15:40.483Z,47.50
2019-03-19T23:18:09.467Z,46.83
2019-03-19T23:20:40.051Z,41.28
2019-03-19T23:23:10.499Z,45.40
2019-03-19T23:25:39.717Z,41.75
2019-03-19T23:28:08.859Z,42.25
2019-03-19T23:30:42.081Z,43.07
2019-03-19T23:33:13.889Z,44.80
2019-03-19T23:35:45.821Z,44.33
2019-03-19T23:38:14.769Z,41.75
2019-03-19T23:40:44.119Z,46.90
2019-03-19T23:43:16.808Z,49.27
2019-03-19T23:45:47.376Z,43.60
2019-03-19T23:48:17.949Z,40.38
2019-03-19T23:50:46.978Z,42.43
2019-03-19T23:53:17.727Z,41.42
2019-03-19T23:55:46.891Z,45.40
2019-03-19T23:58:15.825Z,45.50
